createdAt,value
2023-04-17T00:01:31.716Z,10.90
2023-04-17T00:03:58.511Z,10.77
2023-04-17T00:06:27.250Z,11.17
2023-04-17T00:08:54.131Z,10.67
2023-04-17T00:11:21.358Z,11.10
2023-04-17T00:13:48.135Z,10.97
2023-04-17T00:16:14.913Z,10.87
2023-04-17T00:18:41.634Z,12.73
2023-04-17T00:21:08.355Z,12.60
2023-04-17T00:23:35.132Z,12.00
2023-04-17T00:26:01.877Z,12.83
2023-04-17T00:28:28.617Z,12.67
2023-04-17T00:30:55.414Z,12.47
2023-04-17T00:33:22.118Z,13.17
2023-04-17T00:35:48.806Z,14.10
2023-04-17T00:38:15.791Z,13.50
2023-04-17T00:40:42.751Z,14.07
2023-04-17T00:43:09.619Z,13.97
2023-04-17T00:45:36.449Z,14.00
2023-04-17T00:48:04.952Z,14.20
2023-04-17T00:50:32.088Z,14.80
2023-04-17T00:53:01.190Z,14.57
2023-04-17T00:55:28.924Z,15.33
2023-04-17T00:57:56.781Z,15.47
2023-04-17T01:00:24.701Z,14.97
2023-04-17T01:02:51.769Z,14.73
2023-04-17T01:05:18.903Z,14.20
2023-04-17T01:07:45.967Z,15.00
2023-04-17T01:10:12.811Z,14.40
2023-04-17T01:12:40.473Z,13.57
2023-04-17T01:15:07.551Z,13.77
2023-04-17T01:17:34.502Z,14.77
2023-04-17T01:20:01.407Z,14.13
2023-04-17T01:22:28.474Z,14.77
2023-04-17T01:24:58.071Z,13.80
2023-04-17T01:27:28.292Z,15.43
2023-04-17T01:29:55.282Z,15.03
2023-04-17T01:32:22.019Z,16.53
2023-04-17T01:34:49.705Z,15.40
2023-04-17T01:37:16.422Z,16.23
2023-04-17T01:39:43.102Z,16.50
2023-04-17T01:42:09.816Z,15.80
2023-04-17T01:44:37.610Z,15.60
2023-04-17T01:47:04.500Z,15.80
2023-04-17T01:49:31.268Z,15.70
2023-04-17T01:51:58.046Z,16.27
2023-04-17T01:54:25.106Z,15.63
2023-04-17T01:56:51.899Z,15.63
2023-04-17T01:59:19.050Z,16.57
2023-04-17T02:01:45.823Z,15.50
2023-04-17T02:04:12.705Z,15.80
2023-04-17T02:06:39.399Z,16.90
2023-04-17T02:09:06.178Z,15.40
2023-04-17T02:11:33.069Z,16.13
2023-04-17T02:13:59.974Z,15.10
2023-04-17T02:16:28.706Z,15.03
2023-04-17T02:18:55.888Z,14.90
2023-04-17T02:21:23.091Z,15.57
2023-04-17T02:23:49.872Z,15.50
2023-04-17T02:26:16.618Z,13.67
2023-04-17T02:28:45.111Z,15.30
2023-04-17T02:31:12.784Z,15.90
2023-04-17T02:33:39.780Z,14.13
2023-04-17T02:36:07.614Z,13.87
2023-04-17T02:38:39.178Z,13.87
2023-04-17T02:41:06.423Z,13.70
2023-04-17T02:43:34.076Z,14.67
2023-04-17T02:46:01.433Z,14.03
2023-04-17T02:48:28.566Z,12.83
2023-04-17T02:50:55.562Z,13.57
2023-04-17T02:53:22.566Z,13.47
2023-04-17T02:55:50.214Z,13.07
2023-04-17T02:58:20.086Z,12.43
2023-04-17T03:00:46.834Z,12.37
2023-04-17T03:03:16.767Z,12.20
2023-04-17T03:05:43.570Z,11.80
2023-04-17T03:08:10.632Z,11.33
2023-04-17T03:10:44.892Z,13.80
2023-04-17T03:13:11.670Z,11.87
2023-04-17T03:15:38.363Z,11.47
2023-04-17T03:18:05.171Z,10.43
2023-04-17T03:20:32.259Z,11.10
2023-04-17T03:22:59.091Z,10.70
2023-04-17T03:25:25.962Z,10.20
2023-04-17T03:27:53.979Z,9.53
2023-04-17T03:30:25.429Z,11.40
2023-04-17T03:32:54.311Z,11.13
2023-04-17T03:35:21.225Z,10.37
2023-04-17T03:37:48.010Z,10.27
2023-04-17T03:40:15.020Z,10.80
2023-04-17T03:42:44.017Z,10.93
2023-04-17T03:45:10.926Z,10.53
2023-04-17T03:47:38.521Z,11.13
2023-04-17T03:50:06.566Z,10.77
2023-04-17T03:52:38.325Z,10.23
2023-04-17T03:55:06.283Z,10.33
2023-04-17T03:57:33.021Z,10.20
2023-04-17T03:59:59.940Z,10.40
2023-04-17T04:02:34.473Z,11.60
2023-04-17T04:05:01.448Z,10.50
2023-04-17T04:07:28.520Z,9.43
2023-04-17T04:09:55.885Z,10.10
2023-04-17T04:12:23.321Z,10.87
2023-04-17T04:14:50.300Z,10.50
2023-04-17T04:17:17.558Z,11.13
2023-04-17T04:19:44.700Z,11.43
2023-04-17T04:22:13.673Z,11.53
2023-04-17T04:24:53.688Z,10.63
2023-04-17T04:27:27.564Z,10.67
2023-04-17T04:29:58.682Z,11.60
2023-04-17T04:32:27.715Z,11.80
2023-04-17T04:34:58.563Z,12.97
2023-04-17T04:37:30.011Z,11.17
2023-04-17T04:40:10.507Z,12.37
2023-04-17T04:42:41.994Z,11.93
2023-04-17T04:45:18.739Z,12.27
2023-04-17T04:47:46.040Z,11.20
2023-04-17T04:50:12.872Z,11.63
2023-04-17T04:52:39.628Z,11.63
2023-04-17T04:55:15.172Z,12.47
2023-04-17T04:57:47.054Z,11.63
2023-04-17T05:00:14.571Z,11.83
2023-04-17T05:02:46.597Z,10.73
2023-04-17T05:05:14.505Z,12.17
2023-04-17T05:07:41.787Z,12.07
2023-04-17T05:10:12.122Z,12.13
2023-04-17T05:12:44.428Z,12.03
2023-04-17T05:15:13.074Z,12.07
2023-04-17T05:17:39.860Z,13.20
2023-04-17T05:20:08.326Z,14.13
2023-04-17T05:22:39.737Z,12.60
2023-04-17T05:25:10.184Z,11.53
2023-04-17T05:27:37.655Z,13.70
2023-04-17T05:30:05.839Z,14.20
2023-04-17T05:32:34.972Z,13.90
2023-04-17T05:35:13.385Z,13.43
2023-04-17T05:37:41.142Z,13.90
2023-04-17T05:40:08.686Z,14.00
2023-04-17T05:42:35.406Z,14.57
2023-04-17T05:45:03.563Z,12.83
2023-04-17T05:47:30.555Z,14.40
2023-04-17T05:49:58.004Z,14.17
2023-04-17T05:52:27.631Z,14.17
2023-04-17T05:54:54.378Z,14.80
2023-04-17T05:57:21.301Z,14.60
2023-04-17T05:59:49.264Z,14.10
2023-04-17T06:02:16.731Z,15.00
2023-04-17T06:04:44.373Z,13.87
2023-04-17T06:07:11.995Z,15.23
2023-04-17T06:09:38.798Z,14.47
2023-04-17T06:12:05.692Z,15.23
2023-04-17T06:14:33.173Z,14.60
2023-04-17T06:17:01.960Z,15.07
2023-04-17T06:19:28.709Z,15.90
2023-04-17T06:21:55.571Z,15.27
2023-04-17T06:24:22.314Z,14.70
2023-04-17T06:26:49.003Z,15.43
2023-04-17T06:29:16.182Z,14.73
2023-04-17T06:31:44.189Z,15.07
2023-04-17T06:34:11.245Z,13.67
2023-04-17T06:36:41.904Z,15.10
2023-04-17T06:39:08.677Z,14.07
2023-04-17T06:41:35.679Z,15.03
2023-04-17T06:44:02.455Z,16.10
2023-04-17T06:46:44.419Z,14.97
2023-04-17T06:49:12.080Z,13.40
2023-04-17T06:51:39.119Z,14.67
2023-04-17T06:54:05.963Z,14.70
2023-04-17T06:56:32.751Z,16.27
2023-04-17T06:59:00.763Z,15.67
2023-04-17T07:01:29.340Z,15.90
2023-04-17T07:03:56.271Z,15.93
2023-04-17T07:06:24.354Z,16.10
2023-04-17T07:08:52.141Z,16.10
2023-04-17T07:11:20.468Z,16.30
2023-04-17T07:13:47.154Z,15.47
2023-04-17T07:16:13.869Z,16.77
2023-04-17T07:18:40.610Z,14.80
2023-04-17T07:21:07.277Z,15.47
2023-04-17T07:23:33.929Z,14.00
2023-04-17T07:26:00.763Z,15.10
2023-04-17T07:28:27.606Z,14.43
2023-04-17T07:30:55.088Z,14.97
2023-04-17T07:33:21.845Z,15.10
2023-04-17T07:35:48.604Z,15.77
2023-04-17T07:38:15.441Z,15.20
2023-04-17T07:40:42.157Z,14.27
2023-04-17T07:43:08.814Z,14.00
2023-04-17T07:45:38.521Z,12.63
2023-04-17T07:48:06.573Z,13.20
2023-04-17T07:50:33.388Z,13.23
2023-04-17T07:53:00.117Z,13.20
2023-04-17T07:55:26.824Z,12.77
2023-04-17T07:57:54.320Z,12.13
2023-04-17T08:00:21.627Z,13.03
2023-04-17T08:02:48.616Z,11.30
2023-04-17T08:05:15.600Z,12.17
2023-04-17T08:07:43.388Z,12.80
2023-04-17T08:10:10.548Z,13.50
2023-04-17T08:12:37.378Z,13.57
2023-04-17T08:15:04.420Z,12.50
2023-04-17T08:17:31.166Z,12.40
2023-04-17T08:19:57.929Z,12.23
2023-04-17T08:22:25.956Z,12.40
2023-04-17T08:24:57.788Z,11.23
2023-04-17T08:27:25.559Z,11.87
2023-04-17T08:29:55.074Z,11.63
2023-04-17T08:32:22.025Z,10.90
2023-04-17T08:34:48.815Z,11.47
2023-04-17T08:37:15.671Z,10.80
2023-04-17T08:39:42.465Z,10.57
2023-04-17T08:42:15.831Z,10.07
2023-04-17T08:44:45.590Z,9.67
2023-04-17T08:47:13.385Z,9.63
2023-04-17T08:49:43.501Z,11.07
2023-04-17T08:52:11.289Z,11.00
2023-04-17T08:54:39.037Z,11.50
2023-04-17T08:57:06.196Z,11.17
2023-04-17T08:59:33.075Z,11.97
2023-04-17T09:02:10.372Z,11.30
2023-04-17T09:04:40.264Z,10.40
2023-04-17T09:07:09.492Z,11.47
2023-04-17T09:09:56.265Z,11.57
2023-04-17T09:12:25.106Z,11.93
2023-04-17T09:14:52.318Z,13.20
2023-04-17T09:17:20.948Z,12.47
2023-04-17T09:20:08.807Z,13.20
2023-04-17T09:22:37.131Z,11.83
2023-04-17T09:25:05.228Z,12.67
2023-04-17T09:27:32.437Z,12.37
2023-04-17T09:30:04.463Z,13.53
2023-04-17T09:32:33.893Z,12.37
2023-04-17T09:35:03.528Z,12.70
2023-04-17T09:37:50.122Z,12.07
2023-04-17T09:40:18.999Z,12.00
2023-04-17T09:43:03.826Z,11.90
2023-04-17T09:45:36.168Z,12.77
2023-04-17T09:48:13.318Z,12.10
2023-04-17T09:50:40.841Z,12.53
2023-04-17T09:53:08.712Z,11.57
2023-04-17T09:55:37.948Z,12.07
2023-04-17T09:58:07.624Z,11.57
2023-04-17T10:00:36.638Z,11.27
2023-04-17T10:03:03.904Z,11.80
2023-04-17T10:05:32.296Z,11.47
2023-04-17T10:07:59.227Z,11.40
2023-04-17T10:10:33.832Z,12.07
2023-04-17T10:13:03.333Z,11.40
2023-04-17T10:15:31.045Z,13.37
2023-04-17T10:18:24.031Z,11.43
2023-04-17T10:20:53.655Z,12.00
2023-04-17T10:23:29.744Z,12.37
2023-04-17T10:26:25.261Z,11.53
2023-04-17T10:28:53.438Z,12.30
2023-04-17T10:31:21.255Z,11.50
2023-04-17T10:33:52.655Z,12.20
2023-04-17T10:36:39.672Z,12.10
2023-04-17T10:39:18.256Z,11.53
2023-04-17T10:42:05.707Z,11.67
2023-04-17T10:44:39.498Z,11.60
2023-04-17T10:47:07.635Z,11.10
2023-04-17T10:50:10.078Z,10.80
2023-04-17T10:52:38.812Z,10.63
2023-04-17T10:55:18.447Z,11.10
2023-04-17T10:58:15.333Z,11.03
2023-04-17T11:00:52.486Z,10.53
2023-04-17T11:03:23.101Z,10.40
2023-04-17T11:05:50.144Z,9.93
2023-04-17T11:08:17.039Z,9.47
2023-04-17T11:10:43.987Z,8.83
2023-04-17T11:13:10.812Z,9.07
2023-04-17T11:15:37.535Z,9.40
2023-04-17T11:18:04.405Z,8.27
2023-04-17T11:20:33.330Z,7.07
2023-04-17T11:23:04.663Z,6.83
2023-04-17T11:25:34.199Z,6.40
2023-04-17T11:28:03.853Z,7.17
2023-04-17T11:30:35.779Z,6.37
2023-04-17T11:33:05.092Z,6.77
2023-04-17T11:35:36.717Z,6.00
2023-04-17T11:38:17.568Z,5.77
2023-04-17T11:40:55.418Z,6.13
2023-04-17T11:43:23.603Z,5.70
2023-04-17T11:45:52.530Z,5.13
2023-04-17T11:48:24.527Z,4.90
2023-04-17T11:51:02.860Z,5.00
2023-04-17T11:53:30.699Z,5.03
2023-04-17T11:56:14.258Z,4.80
2023-04-17T11:58:55.573Z,4.60
2023-04-17T12:01:25.304Z,4.30
2023-04-17T12:03:54.120Z,4.07
2023-04-17T12:06:21.535Z,4.70
2023-04-17T12:08:53.406Z,4.43
2023-04-17T12:11:25.806Z,5.10
2023-04-17T12:13:53.426Z,5.50
2023-04-17T12:16:20.391Z,5.00
2023-04-17T12:18:47.346Z,5.30
2023-04-17T12:21:14.513Z,5.03
2023-04-17T12:23:41.541Z,5.20
2023-04-17T12:26:09.159Z,5.40
2023-04-17T12:28:36.398Z,5.13
2023-04-17T12:31:04.585Z,4.33
2023-04-17T12:33:32.198Z,5.27
2023-04-17T12:36:01.130Z,5.00
2023-04-17T12:38:28.133Z,5.80
2023-04-17T12:40:54.866Z,5.30
2023-04-17T12:43:21.691Z,5.30
2023-04-17T12:45:48.707Z,5.00
2023-04-17T12:48:15.722Z,5.60
2023-04-17T12:50:43.722Z,5.30
2023-04-17T12:53:13.273Z,5.27
2023-04-17T12:55:41.211Z,5.40
2023-04-17T12:58:10.053Z,5.80
2023-04-17T13:00:38.090Z,4.83
2023-04-17T13:03:06.022Z,5.20
2023-04-17T13:05:33.065Z,5.57
2023-04-17T13:07:59.890Z,5.83
2023-04-17T13:10:26.790Z,5.23
2023-04-17T13:12:53.584Z,5.20
2023-04-17T13:15:20.422Z,5.50
2023-04-17T13:17:47.297Z,5.97
2023-04-17T13:20:14.337Z,6.60
2023-04-17T13:22:41.377Z,6.23
2023-04-17T13:25:08.703Z,5.87
2023-04-17T13:27:35.422Z,5.80
2023-04-17T13:30:02.138Z,5.77
2023-04-17T13:32:28.897Z,5.57
2023-04-17T13:34:56.770Z,5.83
2023-04-17T13:37:25.813Z,6.07
2023-04-17T13:39:52.730Z,6.50
2023-04-17T13:42:20.398Z,6.17
2023-04-17T13:44:47.142Z,6.10
2023-04-17T13:47:14.029Z,6.07
2023-04-17T13:49:40.799Z,6.33
2023-04-17T13:52:07.834Z,5.77
2023-04-17T13:54:34.596Z,5.97
2023-04-17T13:57:01.622Z,5.67
2023-04-17T13:59:28.444Z,5.70
2023-04-17T14:01:55.421Z,4.53
2023-04-17T14:04:22.342Z,4.40
2023-04-17T14:06:50.941Z,4.77
2023-04-17T14:09:18.054Z,5.30
2023-04-17T14:11:44.917Z,4.60
2023-04-17T14:14:12.806Z,4.37
2023-04-17T14:16:43.539Z,4.40
2023-04-17T14:19:14.163Z,4.27
2023-04-17T14:21:41.627Z,5.43
2023-04-17T14:24:08.961Z,5.07
2023-04-17T14:26:37.346Z,4.90
2023-04-17T14:29:04.372Z,5.40
2023-04-17T14:31:31.621Z,5.17
2023-04-17T14:33:58.453Z,4.90
2023-04-17T14:36:26.336Z,5.30
2023-04-17T14:38:54.222Z,5.17
2023-04-17T14:41:21.094Z,4.90
2023-04-17T14:43:48.004Z,6.00
2023-04-17T14:46:14.908Z,5.50
2023-04-17T14:51:15.253Z,5.00
2023-04-17T14:53:42.243Z,5.50
2023-04-17T14:56:09.464Z,5.60
2023-04-17T14:58:36.321Z,5.83
2023-04-17T15:01:03.573Z,5.83
2023-04-17T15:03:32.222Z,6.30
2023-04-17T15:05:59.377Z,6.50
2023-04-17T15:08:26.254Z,5.93
2023-04-17T15:10:52.988Z,6.30
2023-04-17T15:13:19.794Z,5.73
2023-04-17T15:15:46.542Z,6.03
2023-04-17T15:18:13.214Z,6.03
2023-04-17T15:20:40.710Z,8.77
2023-04-17T15:23:07.540Z,9.40
2023-04-17T15:25:34.654Z,8.77
2023-04-17T15:28:01.530Z,11.33
2023-04-17T15:30:28.234Z,8.50
2023-04-17T15:32:55.025Z,8.30
2023-04-17T15:35:22.066Z,6.80
2023-04-17T15:37:48.832Z,6.10
2023-04-17T15:40:16.288Z,6.73
2023-04-17T15:42:43.646Z,6.53
2023-04-17T15:45:10.719Z,5.87
2023-04-17T15:47:37.504Z,5.73
2023-04-17T15:50:04.632Z,5.07
2023-04-17T15:52:31.352Z,4.87
2023-04-17T15:54:58.006Z,5.27
2023-04-17T15:57:24.749Z,5.40
2023-04-17T15:59:51.556Z,5.57
2023-04-17T16:02:18.386Z,5.00
2023-04-17T16:04:45.267Z,5.13
2023-04-17T16:07:12.217Z,4.53
2023-04-17T16:09:39.815Z,4.60
2023-04-17T16:12:10.392Z,4.30
2023-04-17T16:14:37.961Z,4.33
2023-04-17T16:17:05.322Z,4.37
2023-04-17T16:19:32.529Z,4.40
2023-04-17T16:21:59.603Z,4.30
2023-04-17T16:24:26.378Z,4.83
2023-04-17T16:26:57.503Z,5.07
2023-04-17T16:29:25.156Z,10.30
2023-04-17T16:31:53.297Z,9.67
2023-04-17T16:34:20.803Z,5.30
2023-04-17T16:36:48.262Z,4.23
2023-04-17T16:39:15.349Z,3.90
2023-04-17T16:41:42.355Z,3.83
2023-04-17T16:44:09.043Z,3.90
2023-04-17T16:46:52.235Z,7.60
2023-04-17T16:49:22.613Z,15.87
2023-04-17T16:51:49.396Z,5.10
2023-04-17T16:54:16.275Z,5.50
2023-04-17T16:56:43.053Z,4.00
2023-04-17T16:59:09.772Z,3.10
2023-04-17T17:01:36.487Z,3.23
2023-04-17T17:04:03.354Z,3.23
2023-04-17T17:06:30.211Z,3.00
2023-04-17T17:08:57.360Z,3.20
2023-04-17T17:11:24.076Z,3.47
2023-04-17T17:13:51.692Z,4.47
2023-04-17T17:16:21.001Z,4.50
2023-04-17T17:18:48.354Z,3.77
2023-04-17T17:21:15.357Z,3.43
2023-04-17T17:23:42.051Z,3.37
2023-04-17T17:26:08.802Z,4.07
2023-04-17T17:28:35.653Z,3.47
2023-04-17T17:31:04.209Z,2.97
2023-04-17T17:33:32.207Z,2.97
2023-04-17T17:35:59.763Z,3.00
2023-04-17T17:38:32.588Z,3.20
2023-04-17T17:40:59.622Z,3.40
2023-04-17T17:43:29.225Z,3.00
2023-04-17T17:45:56.068Z,3.10
2023-04-17T17:48:22.798Z,3.50
2023-04-17T17:50:53.953Z,3.27
2023-04-17T17:53:26.055Z,3.10
2023-04-17T17:55:55.469Z,3.20
2023-04-17T17:58:22.975Z,3.30
2023-04-17T18:00:50.435Z,3.30
2023-04-17T18:03:17.990Z,2.83
2023-04-17T18:05:46.434Z,3.30
2023-04-17T18:08:14.395Z,3.43
2023-04-17T18:10:41.159Z,3.57
2023-04-17T18:13:08.312Z,3.40
2023-04-17T18:15:36.332Z,3.07
2023-04-17T18:18:03.474Z,3.07
2023-04-17T18:20:30.253Z,3.23
2023-04-17T18:22:57.579Z,3.20
2023-04-17T18:25:24.422Z,3.20
2023-04-17T18:27:51.220Z,3.50
2023-04-17T18:30:17.994Z,3.20
2023-04-17T18:32:44.739Z,3.13
2023-04-17T18:35:11.657Z,3.73
2023-04-17T18:37:39.593Z,3.57
2023-04-17T18:40:07.875Z,3.90
2023-04-17T18:42:34.614Z,3.73
2023-04-17T18:45:01.407Z,3.50
2023-04-17T18:47:28.517Z,3.60
2023-04-17T18:49:55.304Z,3.60
2023-04-17T18:52:22.102Z,3.60
2023-04-17T18:54:48.923Z,2.93
2023-04-17T18:57:15.747Z,3.43
2023-04-17T18:59:43.341Z,3.00
2023-04-17T19:02:10.314Z,3.63
2023-04-17T19:04:37.086Z,3.60
2023-04-17T19:07:03.788Z,3.47
2023-04-17T19:09:30.623Z,3.27
2023-04-17T19:11:58.502Z,3.60
2023-04-17T19:14:25.319Z,3.40
2023-04-17T19:16:53.267Z,3.70
2023-04-17T19:19:20.299Z,3.93
2023-04-17T19:21:46.966Z,3.47
2023-04-17T19:24:13.754Z,3.93
2023-04-17T19:26:41.225Z,3.90
2023-04-17T19:29:08.018Z,3.77
2023-04-17T19:31:34.890Z,3.90
2023-04-17T19:34:01.700Z,3.80
2023-04-17T19:36:28.563Z,3.33
2023-04-17T19:38:56.385Z,3.93
2023-04-17T19:41:23.120Z,3.90
2023-04-17T19:43:51.362Z,4.07
2023-04-17T19:46:19.544Z,4.17
2023-04-17T19:48:47.263Z,4.20
2023-04-17T19:51:15.081Z,3.67
2023-04-17T19:53:43.354Z,4.20
2023-04-17T19:56:10.698Z,3.90
2023-04-17T19:58:38.439Z,3.90
2023-04-17T20:01:11.073Z,4.07
2023-04-17T20:03:39.283Z,4.00
2023-04-17T20:06:06.532Z,3.87
2023-04-17T20:08:33.417Z,4.20
2023-04-17T20:11:00.815Z,4.17
2023-04-17T20:13:30.444Z,4.37
2023-04-17T20:15:57.221Z,4.53
2023-04-17T20:18:24.926Z,4.00
2023-04-17T20:20:51.746Z,4.17
2023-04-17T20:23:18.492Z,3.80
2023-04-17T20:25:45.172Z,4.07
2023-04-17T20:28:12.009Z,4.33
2023-04-17T20:30:39.095Z,4.27
2023-04-17T20:33:05.880Z,4.23
2023-04-17T20:35:32.630Z,4.23
2023-04-17T20:37:59.693Z,4.13
2023-04-17T20:40:26.515Z,4.57
2023-04-17T20:42:53.301Z,4.10
2023-04-17T20:45:20.271Z,4.80
2023-04-17T20:47:56.476Z,4.30
2023-04-17T20:50:24.803Z,4.60
2023-04-17T20:52:51.659Z,4.20
2023-04-17T20:55:19.977Z,4.30
2023-04-17T20:57:47.738Z,4.60
2023-04-17T21:00:14.869Z,4.50
2023-04-17T21:02:42.075Z,4.07
2023-04-17T21:05:12.331Z,4.60
2023-04-17T21:07:39.094Z,4.93
2023-04-17T21:10:06.552Z,4.90
2023-04-17T21:12:35.064Z,4.67
2023-04-17T21:15:02.124Z,4.13
2023-04-17T21:17:28.948Z,4.40
2023-04-17T21:19:56.259Z,4.17
2023-04-17T21:22:23.153Z,4.50
2023-04-17T21:24:49.821Z,4.03
2023-04-17T21:27:16.723Z,4.80
2023-04-17T21:29:46.119Z,4.70
2023-04-17T21:32:12.859Z,4.30
2023-04-17T21:34:39.819Z,4.70
2023-04-17T21:37:06.525Z,5.20
2023-04-17T21:39:33.467Z,4.60
2023-04-17T21:42:00.750Z,5.13
2023-04-17T21:44:28.085Z,5.33
2023-04-17T21:46:54.788Z,5.27
2023-04-17T21:49:22.510Z,5.53
2023-04-17T21:51:49.206Z,5.73
2023-04-17T21:54:16.111Z,5.60
2023-04-17T21:56:42.836Z,5.60
2023-04-17T21:59:09.636Z,5.67
2023-04-17T22:01:36.420Z,5.27
2023-04-17T22:04:03.315Z,5.40
2023-04-17T22:06:30.234Z,5.60
2023-04-17T22:08:56.934Z,5.37
2023-04-17T22:11:23.594Z,5.43
2023-04-17T22:13:50.447Z,5.20
2023-04-17T22:16:17.327Z,5.30
2023-04-17T22:18:44.128Z,4.90
2023-04-17T22:21:13.217Z,5.33
2023-04-17T22:23:40.090Z,4.90
2023-04-17T22:26:06.849Z,5.20
2023-04-17T22:28:33.583Z,5.10
2023-04-17T22:31:00.349Z,5.27
2023-04-17T22:33:27.237Z,5.37
2023-04-17T22:35:53.987Z,4.97
2023-04-17T22:38:23.551Z,5.77
2023-04-17T22:40:50.284Z,5.70
2023-04-17T22:43:17.051Z,5.80
2023-04-17T22:45:43.796Z,5.20
2023-04-17T22:48:10.513Z,5.93
2023-04-17T22:50:37.929Z,5.20
2023-04-17T22:53:04.897Z,5.40
2023-04-17T22:55:31.664Z,5.17
2023-04-17T22:58:00.321Z,4.93
2023-04-17T23:00:27.069Z,5.03
2023-04-17T23:02:53.874Z,5.40
2023-04-17T23:05:20.832Z,5.30
2023-04-17T23:07:49.171Z,5.10
2023-04-17T23:10:15.978Z,5.47
2023-04-17T23:12:42.943Z,5.13
2023-04-17T23:15:10.098Z,5.37
2023-04-17T23:17:36.857Z,4.87
2023-04-17T23:20:04.111Z,4.90
2023-04-17T23:22:30.991Z,4.63
2023-04-17T23:24:57.838Z,4.60
2023-04-17T23:27:24.580Z,5.00
2023-04-17T23:29:51.266Z,5.03
2023-04-17T23:32:18.061Z,4.87
2023-04-17T23:34:44.849Z,5.03
2023-04-17T23:37:11.888Z,4.87
2023-04-17T23:39:38.654Z,5.30
2023-04-17T23:42:07.785Z,5.03
2023-04-17T23:44:34.716Z,5.07
2023-04-17T23:47:03.179Z,4.67
2023-04-17T23:49:29.997Z,4.70
2023-04-17T23:51:56.763Z,5.00
2023-04-17T23:54:23.463Z,5.13
2023-04-17T23:56:50.199Z,4.57
2023-04-17T23:59:16.893Z,5.10
